sensor_id;sensor_type;location;lat;lon;timestamp;pressure;altitude;pressure_sealevel;temperature;humidity
24280;BME280;12395;42.808;23.408;2023-07-13T00:02:09;95181.22;;;19.25;100.00
24280;BME280;12395;42.808;23.408;2023-07-13T00:04:34;95177.16;;;19.23;100.00
24280;BME280;12395;42.808;23.408;2023-07-13T00:07:00;95181.22;;;19.25;100.00
24280;BME280;12395;42.808;23.408;2023-07-13T00:09:25;95180.41;;;19.25;100.00
24280;BME280;12395;42.808;23.408;2023-07-13T00:11:52;95182.31;;;19.30;100.00
24280;BME280;12395;42.808;23.408;2023-07-13T00:14:18;95178.53;;;19.25;100.00
24280;BME280;12395;42.808;23.408;2023-07-13T00:16:44;95182.53;;;19.23;100.00
24280;BME280;12395;42.808;23.408;2023-07-13T00:19:11;95170.19;;;19.22;100.00
24280;BME280;12395;42.808;23.408;2023-07-13T00:21:37;95164.81;;;19.22;100.00
24280;BME280;12395;42.808;23.408;2023-07-13T00:24:03;95155.63;;;19.18;100.00
24280;BME280;12395;42.808;23.408;2023-07-13T00:26:28;95152.91;;;19.13;100.00
24280;BME280;12395;42.808;23.408;2023-07-13T00:28:54;95151.38;;;19.22;100.00
24280;BME280;12395;42.808;23.408;2023-07-13T00:31:19;95158.22;;;19.08;100.00
24280;BME280;12395;42.808;23.408;2023-07-13T00:33:45;95160.41;;;19.11;100.00
24280;BME280;12395;42.808;23.408;2023-07-13T00:36:11;95161.91;;;19.02;100.00
24280;BME280;12395;42.808;23.408;2023-07-13T00:38:37;95147.06;;;18.94;100.00
24280;BME280;12395;42.808;23.408;2023-07-13T00:41:03;95153.56;;;18.98;100.00
24280;BME280;12395;42.808;23.408;2023-07-13T00:43:29;95156.59;;;19.07;100.00
24280;BME280;12395;42.808;23.408;2023-07-13T00:48:27;95157.81;;;18.94;100.00
24280;BME280;12395;42.808;23.408;2023-07-13T00:50:57;95151.34;;;18.90;100.00
24280;BME280;12395;42.808;23.408;2023-07-13T00:53:24;95147.38;;;18.98;100.00
24280;BME280;12395;42.808;23.408;2023-07-13T00:55:51;95159.97;;;18.97;100.00
24280;BME280;12395;42.808;23.408;2023-07-13T00:58:19;95149.69;;;18.89;100.00
24280;BME280;12395;42.808;23.408;2023-07-13T01:00:47;95154.38;;;18.99;100.00
24280;BME280;12395;42.808;23.408;2023-07-13T01:03:14;95154.38;;;18.99;100.00
24280;BME280;12395;42.808;23.408;2023-07-13T01:05:39;95156.25;;;18.98;100.00
24280;BME280;12395;42.808;23.408;2023-07-13T01:08:05;95163.19;;;18.94;100.00
24280;BME280;12395;42.808;23.408;2023-07-13T01:10:31;95157.25;;;18.92;100.00
24280;BME280;12395;42.808;23.408;2023-07-13T01:13:08;95152.56;;;18.83;100.00
24280;BME280;12395;42.808;23.408;2023-07-13T01:15:42;95157.38;;;18.81;100.00
24280;BME280;12395;42.808;23.408;2023-07-13T01:18:14;95155.19;;;18.78;100.00
24280;BME280;12395;42.808;23.408;2023-07-13T01:20:41;95160.63;;;18.83;100.00
24280;BME280;12395;42.808;23.408;2023-07-13T01:23:09;95155.00;;;18.84;100.00
24280;BME280;12395;42.808;23.408;2023-07-13T01:25:36;95153.31;;;18.78;100.00
24280;BME280;12395;42.808;23.408;2023-07-13T01:28:06;95150.25;;;18.65;100.00
24280;BME280;12395;42.808;23.408;2023-07-13T01:30:34;95153.50;;;18.67;100.00
24280;BME280;12395;42.808;23.408;2023-07-13T01:33:00;95141.56;;;18.58;100.00
24280;BME280;12395;42.808;23.408;2023-07-13T01:35:25;95149.66;;;18.63;100.00
24280;BME280;12395;42.808;23.408;2023-07-13T01:37:52;95143.69;;;18.56;100.00
24280;BME280;12395;42.808;23.408;2023-07-13T01:40:17;95151.28;;;18.64;100.00
24280;BME280;12395;42.808;23.408;2023-07-13T01:42:43;95139.38;;;18.55;100.00
24280;BME280;12395;42.808;23.408;2023-07-13T01:45:09;95131.03;;;18.51;100.00
24280;BME280;12395;42.808;23.408;2023-07-13T01:47:34;95151.66;;;18.51;100.00
24280;BME280;12395;42.808;23.408;2023-07-13T01:49:59;95131.66;;;18.41;100.00
24280;BME280;12395;42.808;23.408;2023-07-13T01:52:25;95146.81;;;18.48;100.00
24280;BME280;12395;42.808;23.408;2023-07-13T01:54:50;95148.28;;;18.38;100.00
24280;BME280;12395;42.808;23.408;2023-07-13T01:57:16;95149.31;;;18.37;100.00
24280;BME280;12395;42.808;23.408;2023-07-13T01:59:41;95143.59;;;18.29;100.00
24280;BME280;12395;42.808;23.408;2023-07-13T02:02:06;95151.97;;;18.32;100.00
24280;BME280;12395;42.808;23.408;2023-07-13T02:04:33;95140.53;;;18.20;100.00
24280;BME280;12395;42.808;23.408;2023-07-13T02:06:58;95154.66;;;18.32;100.00
24280;BME280;12395;42.808;23.408;2023-07-13T02:09:23;95150.41;;;18.36;100.00
24280;BME280;12395;42.808;23.408;2023-07-13T02:11:49;95155.75;;;18.36;100.00
24280;BME280;12395;42.808;23.408;2023-07-13T02:14:14;95155.44;;;18.33;100.00
24280;BME280;12395;42.808;23.408;2023-07-13T02:16:41;95147.56;;;18.26;100.00
24280;BME280;12395;42.808;23.408;2023-07-13T02:19:06;95145.31;;;18.18;100.00
24280;BME280;12395;42.808;23.408;2023-07-13T02:21:32;95144.84;;;18.21;100.00
24280;BME280;12395;42.808;23.408;2023-07-13T02:23:57;95139.69;;;18.20;100.00
24280;BME280;12395;42.808;23.408;2023-07-13T02:26:23;95151.94;;;18.11;100.00
24280;BME280;12395;42.808;23.408;2023-07-13T02:28:48;95156.47;;;18.10;100.00
24280;BME280;12395;42.808;23.408;2023-07-13T02:31:15;95162.50;;;18.01;100.00
24280;BME280;12395;42.808;23.408;2023-07-13T02:33:41;95144.41;;;17.91;100.00
24280;BME280;12395;42.808;23.408;2023-07-13T02:36:07;95173.56;;;18.04;100.00
24280;BME280;12395;42.808;23.408;2023-07-13T02:38:33;95156.28;;;17.95;100.00
24280;BME280;12395;42.808;23.408;2023-07-13T02:41:00;95156.19;;;17.90;100.00
24280;BME280;12395;42.808;23.408;2023-07-13T02:43:26;95165.34;;;17.94;100.00
24280;BME280;12395;42.808;23.408;2023-07-13T02:45:52;95155.78;;;17.82;100.00
24280;BME280;12395;42.808;23.408;2023-07-13T02:48:17;95167.41;;;17.87;100.00
24280;BME280;12395;42.808;23.408;2023-07-13T02:50:44;95165.78;;;17.86;100.00
24280;BME280;12395;42.808;23.408;2023-07-13T02:53:10;95163.03;;;17.81;100.00
24280;BME280;12395;42.808;23.408;2023-07-13T02:55:36;95156.88;;;17.64;100.00
24280;BME280;12395;42.808;23.408;2023-07-13T02:58:01;95164.50;;;17.72;100.00
24280;BME280;12395;42.808;23.408;2023-07-13T03:00:27;95162.81;;;17.66;100.00
24280;BME280;12395;42.808;23.408;2023-07-13T03:02:53;95175.22;;;17.72;100.00
24280;BME280;12395;42.808;23.408;2023-07-13T03:05:22;95160.13;;;17.66;100.00
24280;BME280;12395;42.808;23.408;2023-07-13T03:07:47;95166.06;;;17.68;100.00
24280;BME280;12395;42.808;23.408;2023-07-13T03:10:13;95169.13;;;17.77;100.00
24280;BME280;12395;42.808;23.408;2023-07-13T03:12:38;95174.25;;;17.78;100.00
24280;BME280;12395;42.808;23.408;2023-07-13T03:15:04;95181.63;;;17.71;100.00
24280;BME280;12395;42.808;23.408;2023-07-13T03:17:29;95181.72;;;17.76;100.00
24280;BME280;12395;42.808;23.408;2023-07-13T03:19:55;95167.34;;;17.82;100.00
24280;BME280;12395;42.808;23.408;2023-07-13T03:22:20;95173.75;;;17.81;100.00
24280;BME280;12395;42.808;23.408;2023-07-13T03:24:46;95170.09;;;17.87;100.00
24280;BME280;12395;42.808;23.408;2023-07-13T03:27:11;95177.63;;;17.90;100.00
24280;BME280;12395;42.808;23.408;2023-07-13T03:29:37;95177.25;;;17.98;100.00
24280;BME280;12395;42.808;23.408;2023-07-13T03:32:03;95160.97;;;17.88;100.00
24280;BME280;12395;42.808;23.408;2023-07-13T03:34:29;95178.97;;;18.09;100.00
24280;BME280;12395;42.808;23.408;2023-07-13T03:36:55;95174.88;;;18.02;100.00
24280;BME280;12395;42.808;23.408;2023-07-13T03:39:20;95186.47;;;18.07;100.00
24280;BME280;12395;42.808;23.408;2023-07-13T03:41:46;95193.16;;;18.05;100.00
24280;BME280;12395;42.808;23.408;2023-07-13T03:44:11;95176.72;;;18.01;100.00
24280;BME280;12395;42.808;23.408;2023-07-13T03:46:37;95177.44;;;18.13;100.00
24280;BME280;12395;42.808;23.408;2023-07-13T03:49:04;95181.00;;;18.19;100.00
24280;BME280;12395;42.808;23.408;2023-07-13T03:51:30;95189.91;;;18.24;100.00
24280;BME280;12395;42.808;23.408;2023-07-13T03:53:56;95185.56;;;18.40;100.00
24280;BME280;12395;42.808;23.408;2023-07-13T03:56:22;95189.09;;;18.40;100.00
24280;BME280;12395;42.808;23.408;2023-07-13T03:58:49;95188.25;;;18.40;100.00
24280;BME280;12395;42.808;23.408;2023-07-13T04:01:16;95189.88;;;18.58;100.00
24280;BME280;12395;42.808;23.408;2023-07-13T04:03:43;95189.97;;;18.68;100.00
24280;BME280;12395;42.808;23.408;2023-07-13T04:06:17;95184.44;;;18.74;100.00
24280;BME280;12395;42.808;23.408;2023-07-13T04:08:55;95175.31;;;18.75;100.00
24280;BME280;12395;42.808;23.408;2023-07-13T04:11:22;95187.75;;;19.08;100.00
24280;BME280;12395;42.808;23.408;2023-07-13T04:13:49;95187.75;;;19.08;100.00
24280;BME280;12395;42.808;23.408;2023-07-13T04:16:15;95190.34;;;19.51;100.00
24280;BME280;12395;42.808;23.408;2023-07-13T04:18:41;95186.28;;;20.12;100.00
24280;BME280;12395;42.808;23.408;2023-07-13T04:21:07;95174.56;;;20.90;96.50
24280;BME280;12395;42.808;23.408;2023-07-13T04:23:33;95187.13;;;21.57;93.60
24280;BME280;12395;42.808;23.408;2023-07-13T04:25:59;95209.22;;;22.59;86.56
24280;BME280;12395;42.808;23.408;2023-07-13T04:28:25;95212.50;;;24.03;79.23
24280;BME280;12395;42.808;23.408;2023-07-13T04:30:51;95222.75;;;25.58;69.58
24280;BME280;12395;42.808;23.408;2023-07-13T04:33:17;95223.53;;;26.92;62.89
24280;BME280;12395;42.808;23.408;2023-07-13T04:35:43;95236.91;;;27.29;61.62
24280;BME280;12395;42.808;23.408;2023-07-13T04:38:12;95225.63;;;26.36;63.87
24280;BME280;12395;42.808;23.408;2023-07-13T04:40:37;95236.25;;;25.44;67.75
24280;BME280;12395;42.808;23.408;2023-07-13T04:43:03;95227.38;;;24.68;72.67
24280;BME280;12395;42.808;23.408;2023-07-13T04:45:28;95225.16;;;24.12;77.16
24280;BME280;12395;42.808;23.408;2023-07-13T04:47:54;95228.13;;;23.77;80.14
24280;BME280;12395;42.808;23.408;2023-07-13T04:50:19;95219.13;;;23.48;82.19
24280;BME280;12395;42.808;23.408;2023-07-13T04:52:50;95220.25;;;23.32;84.27
24280;BME280;12395;42.808;23.408;2023-07-13T04:55:16;95228.44;;;23.22;85.50
24280;BME280;12395;42.808;23.408;2023-07-13T04:57:41;95231.16;;;23.17;86.18
24280;BME280;12395;42.808;23.408;2023-07-13T05:00:07;95217.69;;;23.07;86.67
24280;BME280;12395;42.808;23.408;2023-07-13T05:02:33;95233.03;;;23.16;86.69
24280;BME280;12395;42.808;23.408;2023-07-13T05:04:59;95226.84;;;23.16;87.44
24280;BME280;12395;42.808;23.408;2023-07-13T05:07:26;95234.66;;;23.17;87.75
24280;BME280;12395;42.808;23.408;2023-07-13T05:09:51;95224.16;;;23.11;88.48
24280;BME280;12395;42.808;23.408;2023-07-13T05:12:17;95220.91;;;23.14;87.78
24280;BME280;12395;42.808;23.408;2023-07-13T05:14:43;95219.28;;;23.13;87.22
24280;BME280;12395;42.808;23.408;2023-07-13T05:17:08;95209.81;;;23.10;87.89
24280;BME280;12395;42.808;23.408;2023-07-13T05:19:34;95219.50;;;23.21;84.46
24280;BME280;12395;42.808;23.408;2023-07-13T05:22:00;95237.03;;;23.34;81.44
24280;BME280;12395;42.808;23.408;2023-07-13T05:24:25;95234.88;;;23.31;81.19
24280;BME280;12395;42.808;23.408;2023-07-13T05:26:51;95216.81;;;23.21;82.78
24280;BME280;12395;42.808;23.408;2023-07-13T05:29:17;95235.16;;;23.34;83.14
24280;BME280;12395;42.808;23.408;2023-07-13T05:31:42;95234.34;;;23.34;83.30
24280;BME280;12395;42.808;23.408;2023-07-13T05:34:08;95252.72;;;23.37;82.96
24280;BME280;12395;42.808;23.408;2023-07-13T05:36:33;95247.84;;;23.39;84.11
24280;BME280;12395;42.808;23.408;2023-07-13T05:38:59;95246.47;;;23.41;83.79
24280;BME280;12395;42.808;23.408;2023-07-13T05:41:24;95246.22;;;23.38;83.87
24280;BME280;12395;42.808;23.408;2023-07-13T05:43:50;95245.91;;;23.44;82.87
24280;BME280;12395;42.808;23.408;2023-07-13T05:46:15;95254.84;;;23.45;80.78
24280;BME280;12395;42.808;23.408;2023-07-13T05:48:40;95256.19;;;23.47;82.29
24280;BME280;12395;42.808;23.408;2023-07-13T05:51:06;95244.78;;;23.50;84.35
24280;BME280;12395;42.808;23.408;2023-07-13T05:53:31;95225.84;;;23.50;82.50
24280;BME280;12395;42.808;23.408;2023-07-13T05:55:57;95252.56;;;23.62;82.40
24280;BME280;12395;42.808;23.408;2023-07-13T05:58:23;95253.63;;;23.66;82.26
24280;BME280;12395;42.808;23.408;2023-07-13T06:00:49;95256.56;;;23.74;79.15
24280;BME280;12395;42.808;23.408;2023-07-13T06:03:23;95241.16;;;23.70;79.91
24280;BME280;12395;42.808;23.408;2023-07-13T06:05:48;95257.06;;;23.82;81.68
24280;BME280;12395;42.808;23.408;2023-07-13T06:08:14;95224.97;;;23.65;82.07
24280;BME280;12395;42.808;23.408;2023-07-13T06:10:39;95249.16;;;23.90;81.44
24280;BME280;12395;42.808;23.408;2023-07-13T06:13:06;95255.06;;;23.97;78.90
24280;BME280;12395;42.808;23.408;2023-07-13T06:15:31;95257.22;;;23.95;76.25
24280;BME280;12395;42.808;23.408;2023-07-13T06:17:56;95255.00;;;24.07;75.02
24280;BME280;12395;42.808;23.408;2023-07-13T06:20:22;95267.09;;;24.15;75.52
24280;BME280;12395;42.808;23.408;2023-07-13T06:22:47;95241.16;;;24.09;74.89
24280;BME280;12395;42.808;23.408;2023-07-13T06:25:12;95251.13;;;24.18;76.52
24280;BME280;12395;42.808;23.408;2023-07-13T06:27:38;95258.13;;;24.24;75.86
24280;BME280;12395;42.808;23.408;2023-07-13T06:30:04;95260.19;;;24.32;79.72
24280;BME280;12395;42.808;23.408;2023-07-13T06:32:29;95260.41;;;24.41;75.76
24280;BME280;12395;42.808;23.408;2023-07-13T06:34:55;95245.50;;;24.38;75.59
24280;BME280;12395;42.808;23.408;2023-07-13T06:37:20;95255.47;;;24.48;73.82
24280;BME280;12395;42.808;23.408;2023-07-13T06:39:46;95257.00;;;24.59;73.20
24280;BME280;12395;42.808;23.408;2023-07-13T06:42:12;95236.38;;;24.58;72.69
24280;BME280;12395;42.808;23.408;2023-07-13T06:44:37;95249.81;;;24.68;72.70
24280;BME280;12395;42.808;23.408;2023-07-13T06:47:03;95231.63;;;24.74;73.77
24280;BME280;12395;42.808;23.408;2023-07-13T06:49:28;95239.88;;;24.87;73.53
24280;BME280;12395;42.808;23.408;2023-07-13T06:51:54;95239.28;;;24.95;72.23
24280;BME280;12395;42.808;23.408;2023-07-13T06:54:19;95224.09;;;24.94;72.13
24280;BME280;12395;42.808;23.408;2023-07-13T06:56:45;95244.69;;;25.19;72.29
24280;BME280;12395;42.808;23.408;2023-07-13T06:59:10;95247.56;;;25.27;72.04
24280;BME280;12395;42.808;23.408;2023-07-13T07:01:36;95236.19;;;25.25;71.37
24280;BME280;12395;42.808;23.408;2023-07-13T07:04:03;95246.00;;;25.45;72.35
24280;BME280;12395;42.808;23.408;2023-07-13T07:06:28;95230.34;;;25.37;72.28
24280;BME280;12395;42.808;23.408;2023-07-13T07:08:54;95234.94;;;25.60;74.89
24280;BME280;12395;42.808;23.408;2023-07-13T07:11:25;95248.78;;;25.77;70.44
24280;BME280;12395;42.808;23.408;2023-07-13T07:13:51;95236.41;;;25.71;68.08
24280;BME280;12395;42.808;23.408;2023-07-13T07:16:18;95247.91;;;25.82;69.51
24280;BME280;12395;42.808;23.408;2023-07-13T07:18:44;95244.31;;;25.86;67.61
24280;BME280;12395;42.808;23.408;2023-07-13T07:21:10;95249.69;;;25.91;67.80
24280;BME280;12395;42.808;23.408;2023-07-13T07:23:35;95242.56;;;25.95;68.66
24280;BME280;12395;42.808;23.408;2023-07-13T07:26:00;95246.47;;;26.08;69.12
24280;BME280;12395;42.808;23.408;2023-07-13T07:28:26;95243.72;;;26.27;69.67
24280;BME280;12395;42.808;23.408;2023-07-13T07:30:55;95243.53;;;26.37;70.02
24280;BME280;12395;42.808;23.408;2023-07-13T07:33:22;95237.59;;;26.35;70.81
24280;BME280;12395;42.808;23.408;2023-07-13T07:35:47;95245.88;;;26.43;66.31
24280;BME280;12395;42.808;23.408;2023-07-13T07:38:13;95241.16;;;26.49;67.85
24280;BME280;12395;42.808;23.408;2023-07-13T07:40:39;95242.38;;;26.56;68.47
24280;BME280;12395;42.808;23.408;2023-07-13T07:43:10;95239.38;;;26.58;68.78
24280;BME280;12395;42.808;23.408;2023-07-13T07:45:36;95232.13;;;26.67;68.74
24280;BME280;12395;42.808;23.408;2023-07-13T07:48:03;95234.72;;;26.77;68.05
24280;BME280;12395;42.808;23.408;2023-07-13T07:50:29;95231.88;;;26.82;68.91
24280;BME280;12395;42.808;23.408;2023-07-13T07:52:55;95226.16;;;26.84;66.29
24280;BME280;12395;42.808;23.408;2023-07-13T07:55:24;95227.78;;;26.98;66.30
24280;BME280;12395;42.808;23.408;2023-07-13T07:57:53;95221.81;;;26.96;65.19
24280;BME280;12395;42.808;23.408;2023-07-13T08:00:19;95233.59;;;27.05;65.93
24280;BME280;12395;42.808;23.408;2023-07-13T08:02:45;95225.03;;;27.12;68.28
24280;BME280;12395;42.808;23.408;2023-07-13T08:05:10;95222.91;;;27.22;65.48
24280;BME280;12395;42.808;23.408;2023-07-13T08:07:38;95220.72;;;27.38;66.45
24280;BME280;12395;42.808;23.408;2023-07-13T08:10:04;95214.53;;;27.46;64.41
24280;BME280;12395;42.808;23.408;2023-07-13T08:12:30;95214.84;;;27.44;63.74
24280;BME280;12395;42.808;23.408;2023-07-13T08:14:58;95215.84;;;27.48;62.01
24280;BME280;12395;42.808;23.408;2023-07-13T08:17:25;95224.31;;;27.61;63.37
24280;BME280;12395;42.808;23.408;2023-07-13T08:19:51;95210.56;;;27.66;62.44
24280;BME280;12395;42.808;23.408;2023-07-13T08:22:16;95207.34;;;27.64;60.42
24280;BME280;12395;42.808;23.408;2023-07-13T08:24:41;95200.59;;;27.61;61.59
24280;BME280;12395;42.808;23.408;2023-07-13T08:27:13;95203.09;;;27.71;62.71
24280;BME280;12395;42.808;23.408;2023-07-13T08:29:39;95189.28;;;27.68;61.70
24280;BME280;12395;42.808;23.408;2023-07-13T08:32:06;95199.41;;;27.89;56.96
24280;BME280;12395;42.808;23.408;2023-07-13T08:34:34;95203.22;;;28.02;57.30
24280;BME280;12395;42.808;23.408;2023-07-13T08:37:00;95195.91;;;28.11;58.26
24280;BME280;12395;42.808;23.408;2023-07-13T08:39:25;95184.19;;;28.10;58.82
24280;BME280;12395;42.808;23.408;2023-07-13T08:41:57;95190.94;;;28.13;58.71
24280;BME280;12395;42.808;23.408;2023-07-13T08:44:38;95198.25;;;28.04;60.07
24280;BME280;12395;42.808;23.408;2023-07-13T08:47:06;95196.91;;;28.15;58.17
24280;BME280;12395;42.808;23.408;2023-07-13T08:49:33;95187.84;;;28.06;58.53
24280;BME280;12395;42.808;23.408;2023-07-13T08:52:17;95188.97;;;28.27;58.99
24280;BME280;12395;42.808;23.408;2023-07-13T08:54:50;95204.25;;;28.37;55.39
24280;BME280;12395;42.808;23.408;2023-07-13T08:57:21;95213.63;;;28.44;57.56
24280;BME280;12395;42.808;23.408;2023-07-13T08:59:50;95231.81;;;28.57;57.69
24280;BME280;12395;42.808;23.408;2023-07-13T09:02:25;95233.31;;;28.63;56.75
24280;BME280;12395;42.808;23.408;2023-07-13T09:05:06;95222.00;;;28.56;55.88
24280;BME280;12395;42.808;23.408;2023-07-13T09:08:02;95227.47;;;28.78;55.67
24280;BME280;12395;42.808;23.408;2023-07-13T09:10:45;95223.78;;;28.83;53.14
24280;BME280;12395;42.808;23.408;2023-07-13T09:15:51;95204.47;;;29.10;56.81
24280;BME280;12395;42.808;23.408;2023-07-13T09:20:56;95213.03;;;29.17;53.32
24280;BME280;12395;42.808;23.408;2023-07-13T09:23:24;95201.19;;;29.30;53.96
24280;BME280;12395;42.808;23.408;2023-07-13T09:25:54;95213.56;;;29.36;51.89
24280;BME280;12395;42.808;23.408;2023-07-13T09:28:27;95222.75;;;29.40;50.61
24280;BME280;12395;42.808;23.408;2023-07-13T09:33:25;95207.66;;;29.60;52.47
24280;BME280;12395;42.808;23.408;2023-07-13T09:35:55;95207.66;;;29.68;51.48
24280;BME280;12395;42.808;23.408;2023-07-13T09:38:22;95198.25;;;29.83;51.13
24280;BME280;12395;42.808;23.408;2023-07-13T09:41:04;95207.41;;;29.87;52.01
24280;BME280;12395;42.808;23.408;2023-07-13T09:43:35;95189.72;;;29.93;50.44
24280;BME280;12395;42.808;23.408;2023-07-13T09:46:01;95193.56;;;30.09;50.19
24280;BME280;12395;42.808;23.408;2023-07-13T09:48:34;95192.13;;;30.20;48.62
24280;BME280;12395;42.808;23.408;2023-07-13T09:51:07;95183.91;;;30.20;51.33
24280;BME280;12395;42.808;23.408;2023-07-13T09:53:32;95192.59;;;30.31;49.05
24280;BME280;12395;42.808;23.408;2023-07-13T09:55:58;95178.13;;;30.30;47.55
24280;BME280;12395;42.808;23.408;2023-07-13T09:58:26;95168.31;;;30.29;46.69
24280;BME280;12395;42.808;23.408;2023-07-13T10:01:00;95178.09;;;30.39;48.64
24280;BME280;12395;42.808;23.408;2023-07-13T10:03:34;95180.81;;;30.56;48.87
24280;BME280;12395;42.808;23.408;2023-07-13T10:06:17;95189.19;;;30.60;47.62
24280;BME280;12395;42.808;23.408;2023-07-13T10:08:48;95187.38;;;30.72;46.61
24280;BME280;12395;42.808;23.408;2023-07-13T10:11:28;95173.66;;;30.81;46.75
24280;BME280;12395;42.808;23.408;2023-07-13T10:13:58;95176.81;;;31.00;49.71
24280;BME280;12395;42.808;23.408;2023-07-13T10:16:35;95172.28;;;31.04;46.29
24280;BME280;12395;42.808;23.408;2023-07-13T10:19:12;95177.38;;;31.14;44.10
24280;BME280;12395;42.808;23.408;2023-07-13T10:21:50;95178.06;;;31.11;45.61
24280;BME280;12395;42.808;23.408;2023-07-13T10:24:23;95163.50;;;31.19;45.50
24280;BME280;12395;42.808;23.408;2023-07-13T10:26:57;95157.75;;;31.12;43.03
24280;BME280;12395;42.808;23.408;2023-07-13T10:29:27;95157.81;;;31.33;45.28
24280;BME280;12395;42.808;23.408;2023-07-13T10:31:54;95151.66;;;31.36;43.52
24280;BME280;12395;42.808;23.408;2023-07-13T10:34:19;95148.56;;;31.46;44.04
24280;BME280;12395;42.808;23.408;2023-07-13T10:36:46;95149.28;;;31.55;43.98
24280;BME280;12395;42.808;23.408;2023-07-13T10:39:19;95131.13;;;31.50;44.16
24280;BME280;12395;42.808;23.408;2023-07-13T10:41:50;95136.88;;;31.57;40.96
24280;BME280;12395;42.808;23.408;2023-07-13T10:44:29;95135.53;;;31.63;41.75
24280;BME280;12395;42.808;23.408;2023-07-13T10:46:58;95137.63;;;31.66;41.34
24280;BME280;12395;42.808;23.408;2023-07-13T10:49:27;95127.38;;;31.55;38.48
24280;BME280;12395;42.808;23.408;2023-07-13T10:51:53;95112.34;;;31.61;39.32
24280;BME280;12395;42.808;23.408;2023-07-13T10:54:31;95127.59;;;31.70;41.64
24280;BME280;12395;42.808;23.408;2023-07-13T10:57:26;95123.38;;;31.73;39.64
24280;BME280;12395;42.808;23.408;2023-07-13T11:00:15;95111.66;;;31.84;41.21
24280;BME280;12395;42.808;23.408;2023-07-13T11:02:41;95108.38;;;31.91;42.17
24280;BME280;12395;42.808;23.408;2023-07-13T11:05:30;95113.59;;;32.05;38.19
24280;BME280;12395;42.808;23.408;2023-07-13T11:08:34;95100.34;;;32.07;41.98
24280;BME280;12395;42.808;23.408;2023-07-13T11:11:03;95112.38;;;32.14;38.50
24280;BME280;12395;42.808;23.408;2023-07-13T11:16:13;95096.97;;;32.22;39.78
24280;BME280;12395;42.808;23.408;2023-07-13T11:18:39;95093.56;;;32.25;40.80
24280;BME280;12395;42.808;23.408;2023-07-13T11:21:18;95085.53;;;32.08;41.76
24280;BME280;12395;42.808;23.408;2023-07-13T11:23:52;95094.66;;;32.12;41.50
24280;BME280;12395;42.808;23.408;2023-07-13T11:31:39;95089.91;;;32.33;39.03
24280;BME280;12395;42.808;23.408;2023-07-13T11:34:13;95080.69;;;32.37;44.16
24280;BME280;12395;42.808;23.408;2023-07-13T11:36:43;95073.47;;;32.45;41.39
24280;BME280;12395;42.808;23.408;2023-07-13T11:39:29;95074.66;;;32.56;40.17
24280;BME280;12395;42.808;23.408;2023-07-13T11:42:01;95077.06;;;32.57;38.51
24280;BME280;12395;42.808;23.408;2023-07-13T11:44:29;95067.34;;;32.60;37.28
24280;BME280;12395;42.808;23.408;2023-07-13T11:46:57;95072.72;;;32.68;38.80
24280;BME280;12395;42.808;23.408;2023-07-13T11:49:26;95074.56;;;32.77;37.21
24280;BME280;12395;42.808;23.408;2023-07-13T11:51:52;95068.72;;;32.90;38.90
24280;BME280;12395;42.808;23.408;2023-07-13T11:54:29;95066.66;;;32.87;37.98
24280;BME280;12395;42.808;23.408;2023-07-13T11:57:10;95060.84;;;33.01;37.48
24280;BME280;12395;42.808;23.408;2023-07-13T11:59:44;95061.88;;;33.08;38.08
24280;BME280;12395;42.808;23.408;2023-07-13T12:02:29;95060.13;;;32.92;38.46
24280;BME280;12395;42.808;23.408;2023-07-13T12:04:57;95034.53;;;32.88;37.47
24280;BME280;12395;42.808;23.408;2023-07-13T12:07:24;95022.28;;;32.97;39.61
24280;BME280;12395;42.808;23.408;2023-07-13T12:09:49;95047.22;;;33.16;36.85
24280;BME280;12395;42.808;23.408;2023-07-13T12:12:21;95040.56;;;33.17;37.99
24280;BME280;12395;42.808;23.408;2023-07-13T12:14:51;95034.38;;;33.20;38.57
24280;BME280;12395;42.808;23.408;2023-07-13T12:17:22;95042.81;;;33.39;38.90
24280;BME280;12395;42.808;23.408;2023-07-13T12:19:49;95028.38;;;33.42;39.29
24280;BME280;12395;42.808;23.408;2023-07-13T12:22:16;95032.66;;;33.28;37.01
24280;BME280;12395;42.808;23.408;2023-07-13T12:24:43;95027.72;;;33.33;37.36
24280;BME280;12395;42.808;23.408;2023-07-13T12:27:38;95006.84;;;33.44;38.64
24280;BME280;12395;42.808;23.408;2023-07-13T12:30:25;95013.50;;;33.43;36.83
24280;BME280;12395;42.808;23.408;2023-07-13T12:33:12;95013.00;;;33.54;39.17
24280;BME280;12395;42.808;23.408;2023-07-13T12:35:44;95004.56;;;33.47;39.75
24280;BME280;12395;42.808;23.408;2023-07-13T12:38:11;94994.69;;;33.45;40.22
24280;BME280;12395;42.808;23.408;2023-07-13T12:40:38;95000.81;;;33.51;42.57
24280;BME280;12395;42.808;23.408;2023-07-13T12:43:09;94995.88;;;33.44;36.87
24280;BME280;12395;42.808;23.408;2023-07-13T12:45:36;94992.84;;;33.50;38.58
24280;BME280;12395;42.808;23.408;2023-07-13T12:48:14;94998.78;;;33.64;38.19
24280;BME280;12395;42.808;23.408;2023-07-13T12:50:43;94988.63;;;33.80;35.41
24280;BME280;12395;42.808;23.408;2023-07-13T12:53:16;94986.88;;;33.87;34.03
24280;BME280;12395;42.808;23.408;2023-07-13T12:56:03;94995.97;;;34.03;34.75
24280;BME280;12395;42.808;23.408;2023-07-13T12:58:32;94986.41;;;34.13;33.95
24280;BME280;12395;42.808;23.408;2023-07-13T13:01:02;94983.94;;;34.24;34.80
24280;BME280;12395;42.808;23.408;2023-07-13T13:06:00;94977.97;;;34.37;33.87
24280;BME280;12395;42.808;23.408;2023-07-13T13:08:28;94972.44;;;34.37;34.44
24280;BME280;12395;42.808;23.408;2023-07-13T13:10:53;94983.13;;;34.54;35.17
24280;BME280;12395;42.808;23.408;2023-07-13T13:13:19;94969.38;;;34.54;32.19
24280;BME280;12395;42.808;23.408;2023-07-13T13:15:44;94963.41;;;34.52;33.82